HKY - Hickory Rgnl

Pirep is a free, collaborative database of all public and private airports located within the United States. All pilots are welcome to contribute, edit, and improve any airport they have local knowledge about, no registration required.
Uploaded photos will be licensed under a CC BY-SA 4.0 license. Please only upload photos you have the rights to use.
Tags
Public
Food
Museum
Car Rental
Flying Clubs
METAR / TAF
Edit Tags
Camping
Lodging
Bicycles
Swimming
Golfing
Fishing
Hot Springs
Airpark
Upcoming Events
No upcoming events. Is anything happening here soon?
*
*
*

Where exactly on/near the airport is this event taking place?

Is there a webpage with more information for this event?

Who should be contacted for more information?

What is this event all about?

Repeat every
Description
Last updated: 2023-10-02 00:50:14 EDT
Transient Parking
Fuel Location
Last updated: 2023-10-02 00:50:14 EDT
Landing & Tie-down Fees
Last updated: 2023-10-02 00:50:14 EDT
Crew Car Availability
Flying Clubs
Last updated: 2023-10-18 22:38:20 EDT
WiFi Access
Airport Statistics
Location: Hickory, NC
Elevation: 1,189ft
Sectional: Charlotte
Activation date: Jun 1940
Fuel: 100LL, A (prices)
Runway 06/24: 6,401ft
Runway 01/19: 4,400ft
Access: Open to the public
Current Weather — IFR
  • Weather data is strictly informational and not for flight planning purposes.
  • METAR
    2024-06-17 07:53:00 EDT
    Ceiling Wind Temperature Dewpoint Weather Visbility
    900ft 220° @ 4kt 73°F 71°F N/A 7SM
    Clouds: Broken @ 900ft
    Raw: KHKY 171153Z 22004KT 7SM BKN009 23/22 A3023 RMK AO2 CIG 007V011 SLP212 T02330217 10233 20222 53014
  • TAF
    2024-06-17 08:00:00 EDT – 2024-06-17 09:00:00 EDT
    Ceiling Wind Weather Visbility
    900ft 200° @ 4kt N/A 6SM
    Clouds: Broken @ 900ft
    Raw: KHKY 171211Z 1712/1812 20004KT P6SM BKN009 FM171300 18004KT P6SM BKN050 FM171600 17005KT P6SM VCTS SCT030CB BKN050 FM180200 00000KT P6SM BKN090
  • TAF
    2024-06-17 09:00:00 EDT – 2024-06-17 12:00:00 EDT
    Ceiling Wind Weather Visbility
    5,000ft 180° @ 4kt N/A 6SM
    Clouds: Broken @ 5,000ft
    Raw: KHKY 171211Z 1712/1812 20004KT P6SM BKN009 FM171300 18004KT P6SM BKN050 FM171600 17005KT P6SM VCTS SCT030CB BKN050 FM180200 00000KT P6SM BKN090
  • TAF
    2024-06-17 12:00:00 EDT – 2024-06-17 22:00:00 EDT
    Ceiling Wind Weather Visbility
    5,000ft 170° @ 5kt Thunderstorm in vicinity 6SM
    Clouds: Scattered @ 3,000ft, Broken @ 5,000ft
    Raw: KHKY 171211Z 1712/1812 20004KT P6SM BKN009 FM171300 18004KT P6SM BKN050 FM171600 17005KT P6SM VCTS SCT030CB BKN050 FM180200 00000KT P6SM BKN090
  • TAF
    2024-06-17 22:00:00 EDT – 2024-06-18 08:00:00 EDT
    Ceiling Wind Weather Visbility
    9,000ft Calm N/A 6SM
    Clouds: Broken @ 9,000ft
    Raw: KHKY 171211Z 1712/1812 20004KT P6SM BKN009 FM171300 18004KT P6SM BKN050 FM171600 17005KT P6SM VCTS SCT030CB BKN050 FM180200 00000KT P6SM BKN090
Click/tap to add an annotation marker to the map
Airport Webcams
No webcams added yet.
Direct links to live image URLs will be displayed inline on this page. URLs to separate webpages will be linked to.
URL:
Direct links to live image URLs will be displayed inline on this page. URLs to separate webpages will be linked to.
URL:
Remarks
  • And burke county.
  • Clsd to unsked acr opns with more than 30 psgr seats excp 24 hr ppr call amgr 828-327-0147.
  • No ln of sight btn rwys 19 & 24.
  • Tkofs rwy 19 proh when twr clsd.
  • Twy b at aer 19 not vsb from the twr.
Comments
Leave a comment What was your experience like at this airport?